Time;durP1;ratioP1;P1;durP2;ratioP2;P2;SDS_P1;SDS_P2;PMS_P1;PMS_P2;Temp;Humidity;BMP_temperature;BMP_pressure;BME280_temperature;BME280_humidity;BME280_pressure;Samples;Min_cycle;Max_cycle;Signal;HPM_P1;HPM_P2
2023/07/06 00:01:45;;;;;;;6.47;4.35;;;23.60;52.40;;;;;;6112805;23;114607;-77
2023/07/06 00:04:14;;;;;;;8.50;4.57;;;23.50;52.50;;;;;;6113950;22;114162;-77
2023/07/06 00:06:41;;;;;;;7.25;4.38;;;23.60;52.50;;;;;;6112922;23;114300;-77
2023/07/06 00:09:09;;;;;;;6.50;4.38;;;23.60;52.50;;;;;;6112706;23;114996;-78
2023/07/06 00:11:38;;;;;;;5.57;4.03;;;23.70;52.40;;;;;;6111559;23;114753;-78
2023/07/06 00:14:09;;;;;;;5.15;3.65;;;23.70;52.30;;;;;;6113535;23;114033;-78
2023/07/06 00:16:41;;;;;;;6.90;3.90;;;23.70;52.10;;;;;;6113636;23;114290;-78
2023/07/06 00:19:08;;;;;;;5.43;4.18;;;23.80;52.10;;;;;;6136104;22;115368;-78
2023/07/06 00:21:35;;;;;;;5.45;3.70;;;23.80;52.00;;;;;;6112726;23;114598;-78
2023/07/06 00:24:03;;;;;;;7.25;4.07;;;23.80;51.90;;;;;;6113824;23;114098;-79
2023/07/06 00:26:31;;;;;;;6.45;3.92;;;23.80;52.00;;;;;;6112549;23;114292;-79
2023/07/06 00:28:58;;;;;;;7.03;3.60;;;23.80;52.00;;;;;;6086367;23;117031;-79
2023/07/06 00:31:32;;;;;;;5.95;3.80;;;23.80;51.90;;;;;;6112853;23;114548;-78
2023/07/06 00:34:04;;;;;;;5.72;3.55;;;23.70;52.00;;;;;;6111707;23;114359;-79
2023/07/06 00:36:32;;;;;;;7.68;3.92;;;23.70;52.00;;;;;;6088576;23;114394;-79
2023/07/06 00:39:02;;;;;;;5.78;3.50;;;23.80;51.80;;;;;;6111970;23;115387;-78
2023/07/06 00:41:30;;;;;;;5.85;3.75;;;23.80;51.80;;;;;;6110924;23;114607;-78
2023/07/06 00:43:58;;;;;;;5.30;3.58;;;23.80;51.90;;;;;;6113725;23;114349;-77
2023/07/06 00:46:29;;;;;;;5.45;3.65;;;23.80;51.80;;;;;;6113586;23;114135;-78
2023/07/06 00:48:57;;;;;;;6.95;3.83;;;23.80;51.70;;;;;;6110883;23;114927;-79
2023/07/06 00:51:27;;;;;;;5.95;3.78;;;23.80;51.80;;;;;;6135824;22;114505;-78
2023/07/06 00:53:58;;;;;;;6.10;3.78;;;23.80;51.70;;;;;;6112885;22;114102;-78
2023/07/06 00:56:27;;;;;;;5.22;3.58;;;23.80;51.50;;;;;;6114233;23;114239;-79
2023/07/06 00:59:02;;;;;;;8.35;4.07;;;23.70;51.70;;;;;;6062387;23;114863;-79
2023/07/06 01:01:33;;;;;;;5.10;3.67;;;23.70;51.60;;;;;;6087798;23;115820;-79
2023/07/06 01:04:01;;;;;;;6.53;3.90;;;23.40;51.90;;;;;;6112976;23;113995;-79
2023/07/06 01:06:36;;;;;;;8.73;4.22;;;23.20;52.40;;;;;;6112116;23;114287;-78
2023/07/06 01:09:04;;;;;;;6.70;3.33;;;22.90;53.10;;;;;;6135938;22;115753;-78
2023/07/06 01:11:37;;;;;;;4.78;3.08;;;22.90;53.40;;;;;;6087935;23;114536;-79
2023/07/06 01:14:04;;;;;;;5.88;3.25;;;23.00;53.40;;;;;;6112352;23;114123;-77
2023/07/06 01:16:55;;;;;;;5.22;3.53;;;23.20;53.10;;;;;;6087511;23;114327;-78
2023/07/06 01:19:44;;;;;;;10.55;4.25;;;23.30;52.60;;;;;;6136063;22;114828;-77
2023/07/06 01:22:40;;;;;;;10.05;4.20;;;23.30;52.30;;;;;;6112083;23;114735;-77
2023/07/06 01:25:10;;;;;;;8.05;4.03;;;23.30;52.20;;;;;;6114159;23;114126;-78
2023/07/06 01:27:50;;;;;;;7.75;3.58;;;23.30;52.90;;;;;;6113453;23;114359;-78
2023/07/06 01:30:17;;;;;;;7.65;3.70;;;23.30;52.60;;;;;;6111561;23;115041;-77
2023/07/06 01:32:48;;;;;;;6.80;3.30;;;23.30;52.50;;;;;;6137018;22;114677;-78
2023/07/06 01:35:17;;;;;;;5.95;3.03;;;23.30;52.60;;;;;;6089481;23;114110;-77
2023/07/06 01:37:45;;;;;;;5.43;3.13;;;23.30;52.50;;;;;;6113880;22;114288;-78
2023/07/06 01:40:12;;;;;;;6.22;3.72;;;23.40;52.30;;;;;;6113811;23;115030;-78
2023/07/06 01:42:40;;;;;;;5.15;3.17;;;23.40;52.00;;;;;;6137094;22;114868;-78
2023/07/06 01:45:17;;;;;;;6.55;3.20;;;23.40;52.10;;;;;;6114655;23;114113;-78
2023/07/06 01:47:56;;;;;;;6.78;3.70;;;23.30;52.30;;;;;;6113873;23;114289;-78
2023/07/06 01:50:31;;;;;;;5.38;3.50;;;23.40;52.10;;;;;;6087963;23;115212;-77
2023/07/06 01:53:02;;;;;;;6.28;3.28;;;23.30;52.20;;;;;;6112384;23;115553;-77
2023/07/06 01:55:40;;;;;;;7.40;3.45;;;23.30;52.30;;;;;;6137083;22;114704;-78
2023/07/06 01:58:26;;;;;;;5.15;3.30;;;23.40;52.00;;;;;;6088896;23;114410;-80
2023/07/06 02:00:59;;;;;;;5.43;3.33;;;23.30;52.00;;;;;;6137150;22;114926;-78
2023/07/06 02:03:28;;;;;;;4.65;2.80;;;23.20;52.20;;;;;;6112208;23;114541;-78
2023/07/06 02:05:57;;;;;;;6.18;3.13;;;23.20;52.60;;;;;;6113620;23;114321;-78
2023/07/06 02:08:24;;;;;;;6.95;3.03;;;23.20;52.60;;;;;;6114580;23;114132;-79
2023/07/06 02:10:52;;;;;;;9.00;3.38;;;23.20;52.40;;;;;;6111980;23;116088;-78
2023/07/06 02:13:20;;;;;;;5.25;3.30;;;23.20;52.40;;;;;;6088191;23;114543;-78
2023/07/06 02:15:47;;;;;;;5.82;3.08;;;23.30;52.30;;;;;;6113313;23;114240;-78
2023/07/06 02:18:14;;;;;;;4.68;3.03;;;23.30;52.20;;;;;;6138255;22;115059;-78
2023/07/06 02:20:41;;;;;;;7.68;3.33;;;23.30;52.00;;;;;;6111937;23;115115;-79
2023/07/06 02:23:11;;;;;;;4.93;3.15;;;23.30;51.90;;;;;;6113417;23;116127;-78
2023/07/06 02:25:39;;;;;;;5.75;3.08;;;23.30;52.10;;;;;;6114606;22;114331;-79
2023/07/06 02:28:08;;;;;;;8.18;3.20;;;23.30;51.80;;;;;;6114463;23;114381;-79
2023/07/06 02:30:37;;;;;;;5.82;3.30;;;23.30;51.70;;;;;;6113777;22;114895;-78
2023/07/06 02:33:04;;;;;;;4.90;3.03;;;23.30;51.80;;;;;;6112903;22;114756;-78
2023/07/06 02:35:34;;;;;;;5.30;3.00;;;23.30;51.90;;;;;;6113033;23;114013;-78
2023/07/06 02:38:01;;;;;;;5.03;2.90;;;23.30;51.80;;;;;;6111985;23;114334;-78
2023/07/06 02:40:29;;;;;;;7.07;3.42;;;23.30;51.70;;;;;;6111838;23;114985;-79
2023/07/06 02:42:56;;;;;;;6.13;2.97;;;23.30;51.40;;;;;;6111910;23;115812;-79
2023/07/06 02:45:23;;;;;;;5.63;2.90;;;23.40;51.70;;;;;;6112416;23;114044;-79
2023/07/06 02:47:50;;;;;;;6.63;3.20;;;23.40;51.70;;;;;;6113227;23;113984;-79
2023/07/06 02:50:20;;;;;;;5.75;3.00;;;23.40;51.50;;;;;;6111720;23;115456;-79
2023/07/06 02:52:47;;;;;;;7.60;3.60;;;23.40;51.50;;;;;;6111713;23;114826;-79
2023/07/06 02:55:16;;;;;;;7.22;3.20;;;23.50;51.30;;;;;;6113070;22;114244;-79
2023/07/06 02:57:43;;;;;;;5.43;2.92;;;23.40;51.40;;;;;;6111476;23;114087;-79
2023/07/06 03:00:14;;;;;;;4.88;3.03;;;23.40;51.50;;;;;;6112218;23;115098;-78
2023/07/06 03:02:41;;;;;;;4.80;3.25;;;23.40;51.50;;;;;;6110890;23;114667;-79
2023/07/06 03:05:10;;;;;;;5.15;2.58;;;23.40;51.30;;;;;;6136162;22;114200;-79
2023/07/06 03:07:38;;;;;;;7.32;3.38;;;23.40;51.40;;;;;;6111307;23;114290;-79
2023/07/06 03:10:08;;;;;;;5.55;2.50;;;23.40;51.40;;;;;;6110792;23;114813;-79
2023/07/06 03:12:37;;;;;;;4.47;3.03;;;23.40;51.50;;;;;;6110183;23;114787;-78
2023/07/06 03:15:10;;;;;;;5.75;3.25;;;23.40;51.30;;;;;;6087206;23;114050;-79
2023/07/06 03:17:38;;;;;;;5.30;3.42;;;23.40;51.30;;;;;;6110484;23;114669;-79
2023/07/06 03:20:13;;;;;;;6.53;3.40;;;23.40;51.20;;;;;;6111372;22;114845;-79
2023/07/06 03:22:44;;;;;;;6.28;3.20;;;23.50;51.20;;;;;;6109995;23;114571;-79
2023/07/06 03:25:33;;;;;;;4.93;3.05;;;23.50;51.00;;;;;;6110833;23;113972;-78
2023/07/06 03:28:00;;;;;;;9.05;3.40;;;23.60;50.70;;;;;;6110993;23;114156;-79
2023/07/06 03:30:28;;;;;;;4.47;2.95;;;23.50;50.70;;;;;;6111373;23;114760;-79
2023/07/06 03:32:55;;;;;;;5.15;3.22;;;23.50;51.00;;;;;;6049936;23;1388591;-78
2023/07/06 03:35:23;;;;;;;4.95;3.35;;;23.60;50.90;;;;;;6113242;23;114594;-79
2023/07/06 03:37:55;;;;;;;7.25;3.00;;;23.60;50.80;;;;;;6137636;22;114089;-79
2023/07/06 03:40:24;;;;;;;6.18;3.17;;;23.60;50.80;;;;;;6111628;23;115061;-79
2023/07/06 03:42:55;;;;;;;6.57;3.20;;;23.70;50.50;;;;;;6111772;23;115139;-78
2023/07/06 03:45:23;;;;;;;7.82;3.80;;;23.70;50.40;;;;;;6112703;23;114222;-79
2023/07/06 03:47:51;;;;;;;6.32;2.90;;;23.80;50.30;;;;;;6114130;23;114232;-79
2023/07/06 03:50:20;;;;;;;6.05;3.13;;;23.80;50.20;;;;;;6112780;22;115968;-78
2023/07/06 03:52:47;;;;;;;5.55;3.20;;;23.90;49.90;;;;;;6112721;23;115675;-78
2023/07/06 03:55:20;;;;;;;7.95;3.45;;;24.10;49.70;;;;;;6114066;23;114281;-77
2023/07/06 03:57:49;;;;;;;7.17;3.33;;;24.30;49.00;;;;;;6112844;23;114246;-78
2023/07/06 04:00:30;;;;;;;7.88;3.40;;;24.30;48.90;;;;;;6111983;22;114992;-78
2023/07/06 04:03:00;;;;;;;6.38;3.45;;;24.40;48.90;;;;;;6086047;23;117045;-77
2023/07/06 04:05:32;;;;;;;5.95;2.83;;;24.60;48.20;;;;;;6113657;23;114084;-78
2023/07/06 04:08:03;;;;;;;5.22;3.08;;;24.80;48.20;;;;;;6113868;23;114204;-78
2023/07/06 04:10:33;;;;;;;5.63;3.10;;;24.90;47.40;;;;;;6111067;23;114729;-78
2023/07/06 04:13:00;;;;;;;7.68;3.45;;;25.00;47.40;;;;;;6113089;22;115727;-77
2023/07/06 04:15:27;;;;;;;5.70;3.13;;;25.00;47.30;;;;;;6112510;23;114436;-77
2023/07/06 04:17:55;;;;;;;4.20;2.58;;;25.10;47.00;;;;;;6113391;23;114150;-77
2023/07/06 04:20:24;;;;;;;7.28;3.00;;;25.00;47.10;;;;;;6113276;22;114764;-77
2023/07/06 04:22:55;;;;;;;6.13;3.65;;;24.90;47.40;;;;;;6111800;23;115718;-78
2023/07/06 04:25:29;;;;;;;6.57;3.10;;;24.80;47.40;;;;;;6113924;23;114150;-78
2023/07/06 04:28:02;;;;;;;;;;;24.70;47.60;;;;;;6113514;23;114228;-79
2023/07/06 04:30:34;;;;;;;8.68;3.28;;;24.50;47.70;;;;;;6113078;23;114833;-78
2023/07/06 04:33:03;;;;;;;6.10;3.35;;;24.30;48.20;;;;;;6087724;23;116497;-78
2023/07/06 04:35:31;;;;;;;6.65;3.35;;;24.40;48.30;;;;;;6112376;23;114434;-78
2023/07/06 04:38:01;;;;;;;6.47;3.08;;;24.40;48.10;;;;;;6113389;23;114263;-78
2023/07/06 04:40:29;;;;;;;6.25;3.13;;;24.30;48.30;;;;;;6112642;23;114068;-79
2023/07/06 04:42:56;;;;;;;6.13;3.15;;;24.40;48.00;;;;;;6112095;23;115696;-79
2023/07/06 04:45:25;;;;;;;5.38;3.05;;;24.30;47.70;;;;;;6137631;22;114518;-79
2023/07/06 04:47:57;;;;;;;5.90;3.17;;;24.30;48.10;;;;;;6113392;23;114113;-79
2023/07/06 04:50:24;;;;;;;7.00;3.72;;;24.30;48.30;;;;;;6112769;22;115087;-79
2023/07/06 04:52:57;;;;;;;6.57;3.78;;;24.30;47.80;;;;;;6113431;23;114798;-79
2023/07/06 04:55:27;;;;;;;6.18;2.92;;;24.30;47.50;;;;;;6114598;23;114281;-78
2023/07/06 04:57:56;;;;;;;6.72;3.40;;;24.30;48.10;;;;;;6112962;23;114220;-78
2023/07/06 05:00:30;;;;;;;6.55;2.88;;;24.30;48.20;;;;;;6113267;22;115993;-78
2023/07/06 05:03:00;;;;;;;6.32;3.65;;;24.30;48.10;;;;;;6112604;22;114579;-78
2023/07/06 05:05:31;;;;;;;5.95;3.20;;;24.30;48.10;;;;;;6114024;22;114074;-79
2023/07/06 05:07:59;;;;;;;6.38;3.47;;;24.30;47.80;;;;;;6114638;23;114167;-78
2023/07/06 05:10:26;;;;;;;5.15;3.00;;;24.30;47.80;;;;;;6086711;23;114864;-78
2023/07/06 05:12:55;;;;;;;7.38;3.60;;;24.30;48.00;;;;;;6112597;23;115004;-78
2023/07/06 05:15:36;;;;;;;7.35;3.80;;;24.40;47.20;;;;;;6112251;22;114292;-78
2023/07/06 05:18:04;;;;;;;5.35;3.70;;;24.40;47.40;;;;;;6112341;23;114009;-79
2023/07/06 05:20:31;;;;;;;5.63;3.40;;;24.50;46.80;;;;;;6112978;23;114863;-79
2023/07/06 05:22:58;;;;;;;5.95;3.53;;;24.50;46.70;;;;;;6112900;23;115094;-79
2023/07/06 05:25:26;;;;;;;5.70;3.25;;;24.50;46.40;;;;;;6113711;23;114307;-79
2023/07/06 05:27:53;;;;;;;6.13;3.63;;;24.50;46.90;;;;;;6111606;23;114196;-79
2023/07/06 05:30:21;;;;;;;4.70;3.00;;;24.50;46.40;;;;;;6112568;23;114943;-79
2023/07/06 05:32:49;;;;;;;5.97;3.30;;;24.50;47.30;;;;;;6112486;23;114602;-78
2023/07/06 05:35:18;;;;;;;5.63;3.25;;;24.40;46.30;;;;;;6113437;23;114273;-78
2023/07/06 05:37:46;;;;;;;7.32;3.80;;;24.30;46.50;;;;;;6112058;23;114494;-78
2023/07/06 05:40:13;;;;;;;7.47;3.50;;;24.30;45.20;;;;;;6111864;23;115242;-78
2023/07/06 05:42:40;;;;;;;7.93;2.80;;;24.10;45.70;;;;;;6112009;22;115901;-78
2023/07/06 05:45:08;;;;;;;8.23;3.50;;;24.00;47.10;;;;;;6112209;23;114293;-80
2023/07/06 05:47:36;;;;;;;6.28;3.20;;;24.00;47.10;;;;;;6112054;23;114293;-79
2023/07/06 05:50:05;;;;;;;8.55;3.67;;;24.10;47.40;;;;;;6112428;23;115449;-79
2023/07/06 05:52:32;;;;;;;6.22;3.47;;;24.20;46.50;;;;;;6135415;22;115936;-78
2023/07/06 05:54:59;;;;;;;6.10;3.78;;;24.20;46.10;;;;;;6113231;23;114490;-79
2023/07/06 05:57:26;;;;;;;6.28;3.53;;;24.30;45.30;;;;;;6113527;23;114035;-78
2023/07/06 05:59:54;;;;;;;8.98;4.25;;;24.30;44.80;;;;;;6110556;23;114826;-78
2023/07/06 06:02:21;;;;;;;7.45;4.10;;;24.20;45.60;;;;;;6110218;23;118018;-78
2023/07/06 06:04:51;;;;;;;6.97;3.70;;;24.20;44.90;;;;;;6112451;22;114173;-78
2023/07/06 06:07:19;;;;;;;7.10;3.45;;;24.20;45.00;;;;;;6112920;23;114213;-78
2023/07/06 06:09:49;;;;;;;7.38;3.65;;;24.20;44.60;;;;;;6111815;22;114829;-79
2023/07/06 06:12:20;;;;;;;8.85;4.00;;;24.20;44.90;;;;;;6110298;23;118084;-77
2023/07/06 06:14:49;;;;;;;6.85;3.53;;;24.20;44.60;;;;;;6113002;23;114113;-80
2023/07/06 06:17:18;;;;;;;5.60;3.42;;;24.20;46.00;;;;;;6114337;23;114127;-78
2023/07/06 06:19:45;;;;;;;9.00;3.70;;;24.20;45.60;;;;;;6111903;23;114893;-79
2023/07/06 06:22:14;;;;;;;6.95;3.50;;;24.10;45.00;;;;;;6113668;23;114557;-79
2023/07/06 06:24:42;;;;;;;6.43;4.05;;;24.20;45.30;;;;;;6114450;23;114162;-79
2023/07/06 06:27:10;;;;;;;9.02;4.05;;;24.20;44.00;;;;;;6112753;23;114191;-79
2023/07/06 06:29:42;;;;;;;8.75;4.10;;;24.10;44.50;;;;;;6111301;23;115393;-79
2023/07/06 06:32:10;;;;;;;6.95;3.83;;;24.00;43.80;;;;;;6113287;23;115240;-79
2023/07/06 06:34:37;;;;;;;5.38;3.80;;;24.00;44.70;;;;;;6114554;22;114160;-78
2023/07/06 06:37:05;;;;;;;7.57;3.40;;;24.10;44.00;;;;;;6112822;23;114113;-78
2023/07/06 06:39:34;;;;;;;6.30;3.83;;;24.20;44.50;;;;;;6113015;23;114857;-77
2023/07/06 06:42:02;;;;;;;9.45;3.80;;;24.20;45.00;;;;;;6111817;23;114853;-77
2023/07/06 06:44:31;;;;;;;8.18;4.00;;;24.20;44.40;;;;;;6064237;23;114396;-79
2023/07/06 06:47:01;;;;;;;7.80;3.53;;;24.20;43.80;;;;;;6114904;23;114300;-79
2023/07/06 06:49:33;;;;;;;7.90;3.35;;;24.10;45.00;;;;;;6112969;23;115694;-78
2023/07/06 06:52:03;;;;;;;6.68;3.45;;;24.20;44.00;;;;;;6113009;23;114489;-78
2023/07/06 06:54:32;;;;;;;6.68;4.03;;;24.20;44.70;;;;;;6111989;23;114283;-78
2023/07/06 06:57:00;;;;;;;8.52;4.10;;;24.20;43.00;;;;;;6138103;22;114379;-79
2023/07/06 06:59:27;;;;;;;5.88;3.92;;;24.10;43.10;;;;;;6113016;23;117002;-79
2023/07/06 07:02:01;;;;;;;6.45;3.75;;;24.10;43.40;;;;;;6113076;23;114646;-78
2023/07/06 07:04:31;;;;;;;7.95;3.67;;;24.10;44.80;;;;;;6112593;23;114201;-78
2023/07/06 07:06:58;;;;;;;7.43;3.72;;;24.20;41.80;;;;;;6113864;23;114158;-78
2023/07/06 07:09:25;;;;;;;8.57;3.70;;;24.20;42.00;;;;;;6112801;23;115253;-78
2023/07/06 07:11:54;;;;;;;8.20;3.53;;;24.20;43.20;;;;;;6136810;22;114517;-78
2023/07/06 07:14:21;;;;;;;10.18;4.07;;;24.20;42.50;;;;;;6113885;22;114097;-78
2023/07/06 07:16:49;;;;;;;9.10;4.13;;;24.40;42.00;;;;;;6113964;23;114192;-78
2023/07/06 07:19:18;;;;;;;8.45;3.50;;;24.50;41.20;;;;;;6112331;22;114967;-78
2023/07/06 07:21:45;;;;;;;8.35;3.58;;;24.50;41.20;;;;;;6137074;22;114612;-78
2023/07/06 07:24:13;;;;;;;6.60;3.13;;;24.50;40.90;;;;;;6114803;23;114377;-77
2023/07/06 07:26:40;;;;;;;6.75;2.88;;;24.50;39.00;;;;;;6113723;22;114094;-78
2023/07/06 07:29:07;;;;;;;5.78;3.10;;;24.50;38.80;;;;;;6112164;23;114921;-78
2023/07/06 07:31:34;;;;;;;6.47;3.20;;;24.50;41.50;;;;;;6113107;23;114614;-78
2023/07/06 07:34:01;;;;;;;6.85;3.25;;;24.40;39.40;;;;;;6113708;23;114294;-78
2023/07/06 07:36:29;;;;;;;7.30;3.28;;;24.30;38.20;;;;;;6115238;23;114150;-78
2023/07/06 07:38:56;;;;;;;5.25;3.15;;;23.90;39.40;;;;;;6113902;23;114131;-78
2023/07/06 07:41:25;;;;;;;6.75;2.83;;;23.90;39.60;;;;;;6113619;23;114199;-78
2023/07/06 07:43:53;;;;;;;5.90;3.60;;;24.00;40.80;;;;;;6112675;23;114216;-78
2023/07/06 07:46:20;;;;;;;6.43;3.05;;;24.20;41.70;;;;;;6114598;23;114283;-78
2023/07/06 07:48:49;;;;;;;6.65;3.30;;;24.30;39.70;;;;;;6113322;23;116516;-79
2023/07/06 07:51:21;;;;;;;5.90;2.78;;;24.50;39.80;;;;;;6113649;23;115040;-78
2023/07/06 07:53:50;;;;;;;6.15;2.80;;;24.70;39.10;;;;;;6114553;23;114087;-78
2023/07/06 07:56:17;;;;;;;5.03;2.50;;;24.70;38.80;;;;;;6113274;23;114181;-78
2023/07/06 07:58:48;;;;;;;7.20;2.90;;;24.70;37.50;;;;;;6113815;23;115061;-78
2023/07/06 08:01:27;;;;;;;6.65;2.95;;;24.60;37.80;;;;;;6112432;23;114565;-78
2023/07/06 08:03:57;;;;;;;6.25;3.03;;;24.50;36.60;;;;;;6112938;23;114364;-78
2023/07/06 08:06:24;;;;;;;4.75;2.60;;;24.30;36.70;;;;;;6114414;22;114008;-78
2023/07/06 08:08:52;;;;;;;5.72;2.63;;;24.40;38.20;;;;;;6112902;23;114869;-78
2023/07/06 08:11:23;;;;;;;7.20;3.40;;;24.40;38.70;;;;;;6111703;23;115956;-78
2023/07/06 08:13:53;;;;;;;4.13;2.60;;;24.50;38.30;;;;;;6114348;22;114182;-78
2023/07/06 08:16:21;;;;;;;5.90;2.83;;;24.60;36.40;;;;;;6112595;23;114398;-78
2023/07/06 08:18:50;;;;;;;5.13;2.65;;;24.60;36.80;;;;;;6111768;23;114217;-79
2023/07/06 08:21:37;;;;;;;5.38;2.95;;;24.70;37.10;;;;;;6113334;23;114839;-78
2023/07/06 08:24:11;;;;;;;6.30;2.90;;;24.80;36.50;;;;;;6114136;23;113996;-78
2023/07/06 08:26:39;;;;;;;5.03;2.90;;;24.90;38.00;;;;;;6114298;23;114253;-78
2023/07/06 08:29:06;;;;;;;5.13;2.90;;;24.90;38.30;;;;;;6111280;23;116792;-77
2023/07/06 08:31:34;;;;;;;5.55;3.05;;;24.80;36.30;;;;;;6112938;23;114700;-78
2023/07/06 08:34:01;;;;;;;6.53;2.78;;;24.70;37.30;;;;;;6113116;23;113945;-79
2023/07/06 08:36:29;;;;;;;6.00;3.05;;;24.50;38.80;;;;;;6113824;23;114381;-79
2023/07/06 08:38:56;;;;;;;6.20;3.38;;;24.50;37.40;;;;;;6110718;23;116270;-78
2023/07/06 08:41:30;;;;;;;6.78;3.17;;;24.50;39.20;;;;;;6112832;23;116523;-79
2023/07/06 08:43:59;;;;;;;6.95;2.95;;;24.50;39.00;;;;;;6112183;23;114066;-79
2023/07/06 08:46:29;;;;;;;5.25;2.88;;;24.50;38.50;;;;;;6112560;23;114607;-80
2023/07/06 08:48:56;;;;;;;7.63;3.30;;;24.30;36.50;;;;;;6111554;23;115432;-79
2023/07/06 08:51:30;;;;;;;7.57;3.13;;;24.20;36.20;;;;;;6111983;22;114640;-79
2023/07/06 08:54:06;;;;;;;6.18;3.22;;;24.00;38.00;;;;;;6112349;23;114432;-79
2023/07/06 08:56:39;;;;;;;5.43;3.03;;;24.00;39.20;;;;;;6112267;23;114251;-78
2023/07/06 08:59:12;;;;;;;4.50;2.93;;;24.00;40.40;;;;;;6112001;23;114964;-79
2023/07/06 09:01:41;;;;;;;5.80;3.15;;;24.10;36.90;;;;;;6110968;23;115009;-79
2023/07/06 09:04:16;;;;;;;5.80;3.38;;;24.10;39.00;;;;;;6112267;23;114079;-79
2023/07/06 09:06:48;;;;;;;5.07;3.13;;;24.20;38.60;;;;;;6113662;22;114325;-79
2023/07/06 09:09:16;;;;;;;4.88;2.67;;;24.20;40.40;;;;;;6110912;23;114749;-79
2023/07/06 09:11:43;;;;;;;6.53;3.30;;;24.20;40.50;;;;;;6112280;23;114583;-79
2023/07/06 09:14:16;;;;;;;5.07;3.03;;;24.20;39.10;;;;;;6111635;23;114096;-79
2023/07/06 09:16:48;;;;;;;5.50;3.13;;;24.20;40.00;;;;;;6114117;22;114194;-77
2023/07/06 09:19:17;;;;;;;5.82;3.67;;;24.20;39.80;;;;;;6112402;23;114830;-79
2023/07/06 09:21:47;;;;;;;5.95;3.47;;;24.20;39.20;;;;;;6086996;23;114502;-79
2023/07/06 09:24:14;;;;;;;6.78;3.72;;;24.20;40.20;;;;;;6112587;22;114022;-78
2023/07/06 09:26:43;;;;;;;9.07;3.75;;;24.10;39.60;;;;;;6113061;23;113989;-78
2023/07/06 09:29:10;;;;;;;6.72;3.08;;;23.90;40.10;;;;;;6110493;23;115117;-77
2023/07/06 09:31:37;;;;;;;6.25;3.50;;;23.80;40.10;;;;;;6112393;23;114644;-78
2023/07/06 09:34:10;;;;;;;6.03;2.97;;;23.70;41.00;;;;;;6112863;23;114174;-78
2023/07/06 09:36:37;;;;;;;5.53;3.17;;;23.80;41.50;;;;;;6111825;23;114098;-78
2023/07/06 09:39:05;;;;;;;7.07;3.28;;;23.80;40.20;;;;;;6110525;23;116970;-78
2023/07/06 09:41:33;;;;;;;7.28;3.22;;;23.80;40.60;;;;;;6112539;23;115109;-79
2023/07/06 09:44:03;;;;;;;5.03;3.30;;;23.80;40.70;;;;;;6111808;23;114382;-78
2023/07/06 09:46:35;;;;;;;6.00;3.20;;;23.70;40.90;;;;;;6111488;23;114507;-79
2023/07/06 09:49:14;;;;;;;5.70;3.65;;;23.70;40.80;;;;;;6109775;23;114932;-79
2023/07/06 09:51:46;;;;;;;9.88;3.97;;;23.70;39.50;;;;;;6112924;23;114599;-77
2023/07/06 09:54:17;;;;;;;5.97;3.08;;;23.70;40.60;;;;;;6112830;23;114255;-78
2023/07/06 09:56:44;;;;;;;4.85;3.10;;;23.70;41.20;;;;;;6089018;23;114181;-78
2023/07/06 09:59:11;;;;;;;5.28;3.05;;;23.80;40.40;;;;;;6112066;23;117872;-79
2023/07/06 10:01:49;;;;;;;6.15;3.13;;;23.80;39.90;;;;;;6113768;23;115121;-79
2023/07/06 10:04:43;;;;;;;9.40;3.40;;;23.80;39.10;;;;;;6112821;23;114036;-78
2023/07/06 10:07:14;;;;;;;7.00;2.90;;;23.80;40.30;;;;;;6114771;22;114192;-79
2023/07/06 10:09:46;;;;;;;8.05;3.47;;;23.70;40.80;;;;;;6113303;22;114965;-79
2023/07/06 10:12:24;;;;;;;6.68;2.92;;;23.70;40.70;;;;;;6111658;23;114846;-79
2023/07/06 10:14:53;;;;;;;6.47;3.70;;;23.70;41.20;;;;;;6112144;23;114731;-78
2023/07/06 10:17:21;;;;;;;6.22;3.42;;;23.80;41.00;;;;;;6114462;23;114170;-77
2023/07/06 10:20:09;;;;;;;5.32;3.20;;;23.80;41.70;;;;;;6113887;23;115168;-79
2023/07/06 10:22:46;;;;;;;6.13;3.00;;;23.90;41.50;;;;;;6137501;22;114560;-78
2023/07/06 10:25:18;;;;;;;7.57;2.95;;;23.90;41.70;;;;;;6113134;23;114297;-78
2023/07/06 10:27:48;;;;;;;5.55;3.03;;;23.80;41.30;;;;;;6114479;23;113996;-78
2023/07/06 10:30:25;;;;;;;6.68;3.03;;;23.80;41.50;;;;;;6087159;23;115490;-78
2023/07/06 10:32:53;;;;;;;4.70;3.13;;;23.80;41.90;;;;;;6112442;23;114661;-79
2023/07/06 10:35:25;;;;;;;6.35;3.17;;;23.70;41.20;;;;;;6114968;23;114092;-78
2023/07/06 10:37:57;;;;;;;5.28;3.22;;;23.70;42.10;;;;;;6113878;23;114352;-78
2023/07/06 10:40:28;;;;;;;5.85;3.33;;;23.70;42.30;;;;;;6087258;23;114956;-79
2023/07/06 10:43:11;;;;;;;5.00;2.83;;;23.70;42.40;;;;;;6112038;23;114531;-78
2023/07/06 10:45:49;;;;;;;4.25;2.85;;;23.70;42.10;;;;;;6138217;22;114018;-78
2023/07/06 10:48:34;;;;;;;7.28;3.03;;;23.70;42.40;;;;;;6114778;23;114025;-78
2023/07/06 10:51:04;;;;;;;4.68;3.03;;;23.70;42.10;;;;;;6111931;23;114850;-79
2023/07/06 10:53:34;;;;;;;8.10;4.00;;;23.70;42.80;;;;;;6113909;23;115927;-78
2023/07/06 10:56:01;;;;;;;8.50;3.97;;;23.80;42.60;;;;;;6114709;23;114044;-78
2023/07/06 10:58:36;;;;;;;6.40;3.20;;;23.80;42.90;;;;;;6115201;22;114424;-78
2023/07/06 11:01:08;;;;;;;8.00;3.63;;;23.80;42.70;;;;;;6112523;23;114796;-78
2023/07/06 11:03:36;;;;;;;5.65;3.47;;;23.80;43.00;;;;;;6112551;23;114500;-78
2023/07/06 11:06:07;;;;;;;6.38;3.55;;;23.90;43.40;;;;;;6112152;23;114189;-78
2023/07/06 11:09:07;;;;;;;10.45;5.28;;;23.90;43.80;;;;;;6114614;22;114153;-78
2023/07/06 11:11:41;;;;;;;5.68;3.40;;;24.00;44.00;;;;;;6113345;23;114954;-78
2023/07/06 11:14:30;;;;;;;8.93;4.57;;;23.90;45.30;;;;;;6113779;23;114547;-77
2023/07/06 11:17:03;;;;;;;9.15;4.38;;;23.80;45.10;;;;;;6113129;23;114166;-78
2023/07/06 11:19:34;;;;;;;9.05;4.55;;;23.70;45.60;;;;;;6112977;23;114273;-78
2023/07/06 11:22:04;;;;;;;6.60;3.88;;;23.70;45.00;;;;;;6111901;23;114800;-78
2023/07/06 11:24:36;;;;;;;7.15;4.15;;;23.60;44.50;;;;;;6112309;23;115490;-79
2023/07/06 11:27:06;;;;;;;9.52;5.05;;;23.60;45.30;;;;;;6112562;23;114067;-78
2023/07/06 11:29:33;;;;;;;9.13;4.30;;;23.70;45.40;;;;;;6113125;23;114440;-79
2023/07/06 11:32:04;;;;;;;8.50;4.68;;;23.70;45.10;;;;;;6111529;23;115151;-78
2023/07/06 11:35:02;;;;;;;8.60;4.72;;;23.80;45.20;;;;;;6112987;23;114508;-79
2023/07/06 11:37:54;;;;;;;6.97;4.03;;;24.00;44.80;;;;;;6113235;23;114094;-78
2023/07/06 11:40:34;;;;;;;9.43;4.07;;;24.10;43.90;;;;;;6113311;23;114369;-78
2023/07/06 11:43:42;;;;;;;9.20;4.28;;;24.20;44.50;;;;;;6113037;23;114844;-79
2023/07/06 11:46:14;;;;;;;9.18;4.90;;;24.40;43.80;;;;;;6111549;23;114607;-79
2023/07/06 11:49:15;;;;;;;10.95;4.22;;;24.40;43.30;;;;;;6112598;23;114421;-79
2023/07/06 11:51:42;;;;;;;8.75;4.70;;;24.50;43.00;;;;;;6114603;22;114401;-78
2023/07/06 11:54:19;;;;;;;7.40;4.30;;;24.40;42.90;;;;;;6111557;23;116297;-78
2023/07/06 11:57:13;;;;;;;9.20;4.05;;;24.30;42.70;;;;;;6111927;23;114615;-79
2023/07/06 11:59:40;;;;;;;6.70;4.10;;;24.30;42.50;;;;;;6112694;23;114103;-79
2023/07/06 12:02:14;;;;;;;6.32;3.90;;;24.30;42.70;;;;;;6112733;23;114106;-79
2023/07/06 12:04:45;;;;;;;5.13;2.95;;;24.50;42.50;;;;;;6111551;23;114955;-79
2023/07/06 12:07:24;;;;;;;7.68;4.18;;;24.60;42.70;;;;;;6112962;22;116081;-78
2023/07/06 12:09:52;;;;;;;8.20;3.88;;;24.60;40.20;;;;;;6113051;23;114355;-79
2023/07/06 12:12:23;;;;;;;6.40;4.00;;;24.40;40.40;;;;;;6113832;23;114183;-79
2023/07/06 12:14:53;;;;;;;10.82;3.65;;;24.30;41.40;;;;;;6111317;23;115340;-79
2023/07/06 12:17:22;;;;;;;6.60;3.88;;;24.40;41.10;;;;;;6112053;23;114635;-79
2023/07/06 12:19:57;;;;;;;6.40;3.80;;;24.50;41.00;;;;;;6114070;23;113951;-78
2023/07/06 12:22:24;;;;;;;7.70;3.72;;;24.70;39.50;;;;;;6112640;23;114345;-79
2023/07/06 12:24:52;;;;;;;5.97;3.90;;;24.70;40.10;;;;;;6112287;23;114859;-79
2023/07/06 12:27:20;;;;;;;6.35;3.50;;;24.60;39.10;;;;;;6087079;23;114486;-79
2023/07/06 12:29:47;;;;;;;7.30;4.43;;;24.30;38.80;;;;;;6114045;23;114242;-79
2023/07/06 12:32:15;;;;;;;6.90;3.42;;;24.00;40.50;;;;;;6113367;23;114356;-78
2023/07/06 12:34:46;;;;;;;7.95;4.03;;;24.10;40.50;;;;;;6111012;23;115452;-79
2023/07/06 12:37:18;;;;;;;7.07;4.10;;;24.20;41.20;;;;;;6111013;23;114661;-76
2023/07/06 12:39:46;;;;;;;7.07;4.18;;;24.40;39.90;;;;;;6112833;23;114311;-78
2023/07/06 12:42:15;;;;;;;6.88;3.63;;;24.40;39.00;;;;;;6112680;23;114393;-78
2023/07/06 12:44:46;;;;;;;5.97;3.65;;;24.30;39.10;;;;;;6111219;23;115439;-78
2023/07/06 12:47:20;;;;;;;9.82;3.85;;;24.30;39.70;;;;;;6111084;23;114755;-79
2023/07/06 12:49:50;;;;;;;7.55;4.28;;;24.30;40.10;;;;;;6113038;23;114201;-78
2023/07/06 12:52:23;;;;;;;7.13;3.63;;;24.30;38.70;;;;;;6113525;23;113953;-79
2023/07/06 12:54:52;;;;;;;5.15;3.30;;;24.40;38.10;;;;;;6110967;23;116226;-79